Time;durP1;ratioP1;P1;durP2;ratioP2;P2;SDS_P1;SDS_P2;PMS_P1;PMS_P2;Temp;Humidity;BMP_temperature;BMP_pressure;BME280_temperature;BME280_humidity;BME280_pressure;Samples;Min_cycle;Max_cycle;Signal;HPM_P1;HPM_P2
2021/05/10 00:00:21;;;;;;;2.80;2.28;;;;;;;21.56;62.16;99583.00;5005280;28;20040;-78
2021/05/10 00:02:46;;;;;;;2.22;1.90;;;;;;;21.40;62.54;99584.03;5004765;28;20037;-77
2021/05/10 00:05:12;;;;;;;2.70;2.10;;;;;;;21.42;62.45;99583.59;5006639;28;20026;-78
2021/05/10 00:07:37;;;;;;;2.88;2.10;;;;;;;21.40;62.21;99583.28;5013004;28;21204;-78
2021/05/10 00:10:08;;;;;;;2.65;1.92;;;;;;;21.21;61.98;99574.28;5007812;28;20399;-78
2021/05/10 00:12:34;;;;;;;4.68;1.90;;;;;;;21.53;61.40;99576.44;5007721;28;20041;-77
2021/05/10 00:14:59;;;;;;;4.22;2.05;;;;;;;21.31;61.74;99586.75;5005235;28;20025;-77
2021/05/10 00:17:25;;;;;;;8.85;2.10;;;;;;;21.45;61.38;99583.44;5014326;28;20044;-79
2021/05/10 00:19:50;;;;;;;2.17;1.92;;;;;;;21.43;60.61;99583.13;5013641;28;20091;-78
2021/05/10 00:22:16;;;;;;;4.78;2.17;;;;;;;21.65;60.11;99587.72;5013561;28;20617;-80
2021/05/10 00:24:43;;;;;;;3.17;2.00;;;;;;;21.23;60.67;99580.06;5002705;28;20042;-78
2021/05/10 00:27:11;;;;;;;2.15;1.83;;;;;;;21.26;60.91;99584.63;5010870;28;20045;-79
2021/05/10 00:29:36;;;;;;;2.30;1.70;;;;;;;21.57;59.70;99587.25;5013417;28;20026;-78
2021/05/10 00:32:03;;;;;;;3.38;2.00;;;;;;;21.35;59.79;99583.88;5009076;28;20037;-79
2021/05/10 00:34:29;;;;;;;4.30;1.80;;;;;;;21.56;58.33;99580.25;5016718;28;20117;-79
2021/05/10 00:36:54;;;;;;;3.58;1.83;;;;;;;21.68;57.03;99576.59;5013745;28;20097;-80
2021/05/10 00:39:21;;;;;;;3.17;1.67;;;;;;;21.76;57.40;99583.31;5008722;28;20450;-79
2021/05/10 00:41:47;;;;;;;2.40;1.77;;;;;;;21.17;59.35;99576.38;5017445;28;20108;-78
2021/05/10 00:44:14;;;;;;;2.28;1.77;;;;;;;21.27;58.42;99583.38;5000468;28;20096;-80
2021/05/10 00:46:40;;;;;;;2.38;1.92;;;;;;;21.48;58.24;99582.53;5016236;28;20107;-78
2021/05/10 00:49:05;;;;;;;2.15;1.95;;;;;;;21.60;57.75;99580.09;5010905;28;20053;-79
2021/05/10 00:51:31;;;;;;;8.50;1.98;;;;;;;21.57;57.84;99590.00;5012188;28;20025;-78
2021/05/10 00:53:57;;;;;;;2.70;1.88;;;;;;;21.31;60.35;99586.75;5014301;28;20088;-80
2021/05/10 00:56:22;;;;;;;4.35;1.67;;;;;;;21.24;58.98;99592.53;5022448;28;20042;-79
2021/05/10 00:58:48;;;;;;;2.30;1.90;;;;;;;20.91;59.47;99599.69;5016076;28;20065;-81
2021/05/10 01:01:13;;;;;;;2.00;1.80;;;;;;;20.96;59.93;99593.63;5020994;28;20033;-81
2021/05/10 01:03:40;;;;;;;2.38;2.00;;;;;;;20.95;62.81;99597.56;5029714;28;20029;-78
2021/05/10 01:06:06;;;;;;;2.00;1.80;;;;;;;20.91;62.79;99596.94;5026656;28;20068;-81
2021/05/10 01:08:31;;;;;;;2.45;2.00;;;;;;;20.70;65.33;99597.78;5024638;28;20030;-80
2021/05/10 01:10:57;;;;;;;1.90;1.70;;;;;;;20.44;66.81;99588.22;5020935;28;20031;-80
2021/05/10 01:13:23;;;;;;;1.95;1.80;;;;;;;20.65;60.81;99590.91;5014431;28;20092;-79
2021/05/10 01:15:51;;;;;;;4.38;1.85;;;;;;;20.47;63.78;99592.78;5022302;28;20021;-78
2021/05/10 01:18:20;;;;;;;2.67;2.03;;;;;;;20.34;66.01;99587.38;5010165;28;20030;-79
2021/05/10 01:20:50;;;;;;;4.53;2.55;;;;;;;20.44;61.73;99594.44;5017511;28;20029;-79
2021/05/10 01:23:16;;;;;;;4.75;3.40;;;;;;;20.39;63.50;99588.78;5024363;28;20022;-80
2021/05/10 01:25:42;;;;;;;3.20;2.40;;;;;;;20.39;63.83;99584.09;5018348;28;20056;-80
2021/05/10 01:28:07;;;;;;;6.07;2.70;;;;;;;20.49;62.68;99582.94;5025075;28;20176;-78
2021/05/10 01:30:38;;;;;;;4.18;2.80;;;;;;;20.32;65.41;99578.88;5014057;28;20189;-81
2021/05/10 01:33:06;;;;;;;3.08;1.85;;;;;;;20.35;62.33;99586.19;5015987;28;20044;-80
2021/05/10 01:35:34;;;;;;;2.10;1.90;;;;;;;20.39;62.22;99591.53;5024638;28;20677;-81
2021/05/10 01:38:00;;;;;;;1.73;1.63;;;;;;;20.47;61.25;99584.56;5019218;28;20030;-80
2021/05/10 01:40:26;;;;;;;4.22;2.05;;;;;;;20.33;62.25;99590.56;5015152;28;20034;-81
2021/05/10 01:42:52;;;;;;;2.78;1.98;;;;;;;20.24;63.89;99593.25;5026103;28;20022;-79
2021/05/10 01:45:18;;;;;;;3.20;1.65;;;;;;;20.45;61.09;99587.00;5018656;28;20063;-79
2021/05/10 01:47:43;;;;;;;3.13;2.00;;;;;;;20.16;60.36;99594.69;5023337;28;20034;-81
2021/05/10 01:50:11;;;;;;;2.30;1.40;;;;;;;20.12;60.63;99602.25;5016589;28;20061;-80
2021/05/10 01:52:37;;;;;;;1.75;1.63;;;;;;;20.09;63.70;99592.22;5009729;28;20034;-77
2021/05/10 01:55:03;;;;;;;3.03;1.95;;;;;;;20.08;63.63;99588.72;5019910;28;20097;-81
2021/05/10 01:57:29;;;;;;;2.15;1.77;;;;;;;20.10;63.72;99594.50;5023127;28;20124;-80
2021/05/10 01:59:54;;;;;;;5.05;1.65;;;;;;;20.05;63.78;99597.81;5018331;28;20069;-80
2021/05/10 02:02:20;;;;;;;2.78;2.28;;;;;;;20.22;61.07;99595.66;5020906;28;20040;-80
2021/05/10 02:05:04;;;;;;;3.55;1.63;;;;;;;20.13;60.77;99599.06;5020985;28;20440;-80
2021/05/10 02:07:29;;;;;;;4.28;1.80;;;;;;;20.02;61.45;99595.19;5018118;28;20075;-79
2021/05/10 02:09:55;;;;;;;2.38;1.92;;;;;;;19.75;66.80;99593.00;5024979;28;20424;-80
2021/05/10 02:12:20;;;;;;;1.92;1.73;;;;;;;19.60;66.93;99591.97;5009849;28;20034;-81
2021/05/10 02:14:46;;;;;;;2.45;1.83;;;;;;;19.64;66.13;99589.88;5009460;28;20093;-80
2021/05/10 02:17:12;;;;;;;2.05;1.75;;;;;;;19.90;63.55;99587.81;5017914;28;20112;-81
2021/05/10 02:19:37;;;;;;;1.90;1.70;;;;;;;19.85;64.20;99594.59;5020880;28;20116;-78
2021/05/10 02:22:03;;;;;;;4.35;1.80;;;;;;;19.74;64.25;99594.22;5015981;28;20026;-79
2021/05/10 02:24:28;;;;;;;1.75;1.42;;;;;;;19.79;60.14;99591.69;5004070;28;20073;-80
2021/05/10 02:26:54;;;;;;;4.45;1.88;;;;;;;19.80;62.29;99590.47;5021639;28;20033;-79
2021/05/10 02:29:19;;;;;;;5.43;1.70;;;;;;;19.57;60.81;99601.78;5018647;28;20041;-77
2021/05/10 02:31:46;;;;;;;4.75;1.92;;;;;;;19.53;63.61;99598.41;5015314;28;20076;-81
2021/05/10 02:34:13;;;;;;;4.07;1.90;;;;;;;19.82;60.54;99600.97;5019143;28;20512;-77
2021/05/10 02:36:38;;;;;;;1.67;1.50;;;;;;;19.64;61.02;99604.31;5014326;28;20128;-80
2021/05/10 02:39:04;;;;;;;2.42;1.58;;;;;;;19.70;60.12;99605.25;5014876;28;20064;-80
2021/05/10 02:41:29;;;;;;;4.90;1.60;;;;;;;19.88;58.23;99610.09;5006757;28;20045;-80
2021/05/10 02:43:55;;;;;;;2.15;1.92;;;;;;;19.88;60.38;99598.44;5020782;28;20034;-80
2021/05/10 02:46:20;;;;;;;1.85;1.75;;;;;;;19.87;61.70;99613.28;5016443;28;20057;-79
2021/05/10 02:48:46;;;;;;;1.88;1.65;;;;;;;19.87;61.02;99622.25;5010518;28;20038;-80
2021/05/10 02:51:11;;;;;;;3.47;1.90;;;;;;;20.07;59.11;99616.50;5008052;28;20046;-81
2021/05/10 02:53:37;;;;;;;4.22;1.90;;;;;;;20.04;59.90;99612.69;5008345;28;20062;-80
2021/05/10 02:56:02;;;;;;;3.70;1.80;;;;;;;19.85;62.08;99613.75;5012065;28;20024;-79
2021/05/10 02:58:28;;;;;;;2.55;1.92;;;;;;;19.64;63.71;99617.97;5013356;28;20092;-80
2021/05/10 03:00:53;;;;;;;4.30;1.80;;;;;;;19.67;62.27;99610.84;5008620;28;20390;-81
2021/05/10 03:03:19;;;;;;;2.97;1.80;;;;;;;19.39;62.05;99611.78;5012164;28;20037;-80
2021/05/10 03:05:45;;;;;;;4.93;2.00;;;;;;;19.51;61.83;99603.56;5017543;28;20021;-81
2021/05/10 03:08:10;;;;;;;1.60;1.50;;;;;;;19.43;61.94;99596.81;5028920;28;20025;-80
2021/05/10 03:10:36;;;;;;;2.10;1.90;;;;;;;19.12;64.72;99608.72;5013735;28;20037;-80
2021/05/10 03:13:02;;;;;;;3.38;2.08;;;;;;;19.49;62.08;99597.75;5016942;28;20034;-78
2021/05/10 03:15:28;;;;;;;2.78;2.20;;;;;;;19.42;62.02;99628.06;5013599;28;20458;-80
2021/05/10 03:17:53;;;;;;;5.25;2.20;;;;;;;19.15;63.08;99625.00;5022653;28;20041;-80
2021/05/10 03:20:22;;;;;;;3.97;2.10;;;;;;;19.13;64.06;99615.69;5019525;28;20061;-79
2021/05/10 03:22:51;;;;;;;2.83;2.08;;;;;;;19.04;64.16;99629.25;5020844;28;20041;-79
2021/05/10 03:25:17;;;;;;;3.05;2.30;;;;;;;19.42;63.74;99640.94;5017703;28;20061;-80
2021/05/10 03:27:42;;;;;;;3.42;2.08;;;;;;;19.45;64.28;99635.34;5028099;28;20379;-80
2021/05/10 03:30:20;;;;;;;2.92;1.92;;;;;;;19.53;64.31;99614.06;5019642;28;20084;-77
2021/05/10 03:32:47;;;;;;;1.88;1.77;;;;;;;19.49;63.98;99632.53;5010027;28;20034;-78
2021/05/10 03:35:13;;;;;;;3.72;2.10;;;;;;;19.01;66.30;99647.25;5018517;28;20026;-80
2021/05/10 03:37:40;;;;;;;2.55;2.10;;;;;;;19.33;64.96;99640.84;5016090;28;20041;-78
2021/05/10 03:40:10;;;;;;;3.58;2.22;;;;;;;19.27;64.35;99643.34;5034984;28;20040;-80
2021/05/10 03:42:36;;;;;;;2.30;2.08;;;;;;;19.04;65.07;99646.41;5028841;28;20042;-80
2021/05/10 03:45:02;;;;;;;3.00;2.20;;;;;;;19.15;64.95;99646.84;5018008;28;20146;-77
2021/05/10 03:47:40;;;;;;;2.40;2.20;;;;;;;19.05;66.21;99647.91;5021793;28;20041;-80
2021/05/10 03:50:09;;;;;;;4.68;2.22;;;;;;;19.04;66.28;99653.81;5027468;28;20037;-80
2021/05/10 03:52:35;;;;;;;4.65;2.00;;;;;;;19.09;65.22;99654.03;5025022;28;20581;-79
2021/05/10 03:55:00;;;;;;;3.28;2.60;;;;;;;19.21;65.34;99666.16;5023476;28;20041;-80
2021/05/10 03:57:26;;;;;;;3.83;2.75;;;;;;;19.24;65.53;99668.03;5020319;28;20037;-77
2021/05/10 03:59:51;;;;;;;3.30;2.72;;;;;;;19.56;63.97;99654.16;5020963;28;21029;-81
2021/05/10 04:02:17;;;;;;;4.40;2.10;;;;;;;19.38;64.05;99645.75;5000002;28;20048;-76
2021/05/10 04:04:54;;;;;;;5.05;2.22;;;;;;;19.60;64.48;99660.25;5010251;28;20034;-77
2021/05/10 04:15:33;;;;;;;4.25;2.20;;;;;;;19.56;63.39;99649.44;5020876;28;20532;-79
2021/05/10 04:17:59;;;;;;;4.45;2.10;;;;;;;19.65;63.83;99652.25;5015881;28;20120;-80
2021/05/10 04:20:24;;;;;;;2.85;2.05;;;;;;;19.48;64.13;99645.41;5029938;28;20061;-80
2021/05/10 04:22:50;;;;;;;3.92;2.08;;;;;;;19.73;64.25;99647.31;5016416;28;20428;-78
2021/05/10 04:25:15;;;;;;;3.13;2.10;;;;;;;19.43;63.36;99647.94;5011560;28;21447;-76
2021/05/10 04:27:41;;;;;;;4.85;2.00;;;;;;;19.61;66.54;99659.81;5017844;28;20402;-78
2021/05/10 04:30:07;;;;;;;3.67;2.80;;;;;;;19.46;64.02;99653.28;5023126;28;20028;-77
2021/05/10 04:32:32;;;;;;;3.45;2.30;;;;;;;19.55;63.94;99669.75;5019824;28;20057;-79
2021/05/10 04:34:58;;;;;;;3.13;2.22;;;;;;;19.48;63.84;99669.22;5024987;28;20041;-79
2021/05/10 04:37:23;;;;;;;4.70;2.30;;;;;;;19.73;63.15;99671.91;5015813;28;20592;-79
2021/05/10 04:39:49;;;;;;;6.13;2.20;;;;;;;19.64;63.88;99664.41;5020154;28;20101;-79
2021/05/10 04:42:14;;;;;;;3.25;1.90;;;;;;;19.52;63.42;99665.19;5026164;28;20037;-76
2021/05/10 04:44:40;;;;;;;6.28;2.30;;;;;;;19.64;62.47;99667.16;5003905;28;20034;-80
2021/05/10 04:47:05;;;;;;;3.33;1.90;;;;;;;19.41;62.90;99669.47;5036370;22;20049;-80
2021/05/10 04:49:31;;;;;;;4.60;2.25;;;;;;;19.75;62.06;99667.56;5044541;28;20029;-80
2021/05/10 04:51:56;;;;;;;5.63;2.28;;;;;;;19.99;61.36;99669.88;5045159;28;20036;-80
2021/05/10 04:54:22;;;;;;;2.70;2.15;;;;;;;20.11;59.87;99663.63;5032095;28;20033;-79
2021/05/10 04:56:47;;;;;;;4.05;1.98;;;;;;;20.19;59.88;99667.69;5028633;28;20021;-81
2021/05/10 04:59:13;;;;;;;3.47;2.22;;;;;;;19.93;61.12;99666.19;5012109;28;20064;-78
2021/05/10 05:01:38;;;;;;;4.25;2.50;;;;;;;19.82;61.18;99663.06;5020651;28;20046;-80
2021/05/10 05:04:04;;;;;;;3.38;1.80;;;;;;;20.07;60.82;99669.22;5022069;28;20025;-79
2021/05/10 05:06:29;;;;;;;5.40;1.70;;;;;;;20.22;61.49;99664.03;5018733;28;20037;-78
2021/05/10 05:08:55;;;;;;;2.78;1.80;;;;;;;19.89;61.67;99660.06;5028317;28;20022;-79
2021/05/10 05:11:20;;;;;;;4.35;2.00;;;;;;;19.90;62.11;99661.63;5022685;28;20494;-79
2021/05/10 05:13:46;;;;;;;3.05;1.90;;;;;;;20.07;63.20;99669.22;5026184;28;20085;-78
2021/05/10 05:16:11;;;;;;;4.70;1.90;;;;;;;20.11;61.70;99664.38;5032077;28;20034;-78
2021/05/10 05:18:37;;;;;;;1.85;1.75;;;;;;;20.02;62.99;99660.78;5028594;28;20030;-77
2021/05/10 05:21:04;;;;;;;1.95;1.73;;;;;;;20.05;63.56;99662.66;5017056;28;20509;-80
2021/05/10 05:23:29;;;;;;;6.22;1.98;;;;;;;20.17;61.59;99659.13;5023115;28;20689;-79
2021/05/10 05:25:56;;;;;;;2.83;2.05;;;;;;;20.25;61.17;99663.13;5025837;28;20040;-79
2021/05/10 05:28:23;;;;;;;4.20;2.10;;;;;;;20.32;60.98;99660.94;5019332;28;20072;-77
2021/05/10 05:30:48;;;;;;;4.65;2.20;;;;;;;20.37;60.33;99663.09;5021051;28;20025;-79
2021/05/10 05:33:14;;;;;;;3.40;2.00;;;;;;;20.29;63.46;99663.78;5021113;28;20041;-78
2021/05/10 05:35:39;;;;;;;3.03;1.92;;;;;;;20.10;63.04;99651.91;5024061;28;20034;-79
2021/05/10 05:38:08;;;;;;;2.40;1.98;;;;;;;19.94;64.21;99645.88;5022579;28;20030;-77
2021/05/10 05:40:34;;;;;;;2.53;2.05;;;;;;;20.18;63.52;99639.56;5034139;28;20044;-78
2021/05/10 05:42:59;;;;;;;5.07;2.30;;;;;;;20.08;64.60;99645.34;5016219;28;20450;-80
2021/05/10 05:45:24;;;;;;;4.95;1.90;;;;;;;20.28;64.63;99651.31;5022265;28;20033;-80
2021/05/10 05:47:50;;;;;;;2.42;2.00;;;;;;;20.38;61.87;99664.59;5018897;28;20029;-79
2021/05/10 05:50:15;;;;;;;4.25;2.10;;;;;;;20.28;61.79;99660.31;5023415;28;20025;-79
2021/05/10 05:52:41;;;;;;;2.58;2.20;;;;;;;20.33;61.77;99667.94;5018635;28;20030;-77
2021/05/10 05:55:09;;;;;;;2.70;2.00;;;;;;;20.31;62.84;99672.31;5025483;28;20555;-79
2021/05/10 05:57:34;;;;;;;6.40;2.20;;;;;;;20.28;62.68;99668.50;5029899;28;20033;-77
2021/05/10 06:00:02;;;;;;;4.93;1.90;;;;;;;20.24;62.90;99667.88;5025377;28;20592;-80
2021/05/10 06:02:27;;;;;;;2.60;2.17;;;;;;;20.28;61.96;99681.41;5017000;28;20087;-80
2021/05/10 06:04:53;;;;;;;5.35;2.05;;;;;;;20.16;63.04;99687.66;5034246;28;20037;-81
2021/05/10 06:07:18;;;;;;;5.32;1.95;;;;;;;20.17;62.93;99681.72;5021073;28;20030;-81
2021/05/10 06:09:44;;;;;;;2.15;1.80;;;;;;;20.24;63.46;99695.22;5026653;28;20061;-80
2021/05/10 06:12:10;;;;;;;5.35;2.20;;;;;;;20.41;63.20;99698.53;5029009;28;20108;-79
2021/05/10 06:14:35;;;;;;;3.72;2.15;;;;;;;20.29;63.26;99696.59;5016096;28;20044;-80
2021/05/10 06:17:01;;;;;;;7.53;1.98;;;;;;;20.47;61.12;99696.75;5024362;28;20022;-80
2021/05/10 06:19:27;;;;;;;4.10;2.20;;;;;;;20.68;60.89;99694.00;5027657;28;20033;-81
2021/05/10 06:21:52;;;;;;;3.75;2.00;;;;;;;20.52;61.72;99693.44;5023816;28;20037;-79
2021/05/10 06:24:18;;;;;;;5.45;2.08;;;;;;;20.68;61.21;99687.78;5011745;28;20402;-80
2021/05/10 06:26:45;;;;;;;4.07;2.03;;;;;;;20.82;60.49;99676.31;5027525;28;20091;-80
2021/05/10 06:29:11;;;;;;;6.10;2.10;;;;;;;20.78;60.94;99681.16;5018993;28;20564;-80
2021/05/10 06:31:36;;;;;;;2.55;1.85;;;;;;;20.65;61.12;99692.16;5023001;28;20069;-80
2021/05/10 06:34:05;;;;;;;3.90;1.77;;;;;;;20.41;62.47;99690.31;5031159;28;20025;-80
2021/05/10 06:36:30;;;;;;;4.03;2.22;;;;;;;20.63;61.73;99699.31;5020207;28;20029;-79
2021/05/10 06:38:56;;;;;;;4.07;2.20;;;;;;;20.70;62.17;99693.56;5017411;28;20508;-80
2021/05/10 06:41:21;;;;;;;7.78;2.40;;;;;;;20.69;62.67;99689.31;5032120;28;20461;-80
2021/05/10 06:43:47;;;;;;;3.60;2.00;;;;;;;20.58;62.23;99686.94;5022680;28;20033;-79
2021/05/10 06:46:12;;;;;;;3.05;2.22;;;;;;;20.61;62.47;99682.56;5017583;28;20124;-80
2021/05/10 06:48:38;;;;;;;4.80;2.95;;;;;;;20.60;62.70;99681.03;5020760;28;20033;-80
2021/05/10 06:51:04;;;;;;;3.67;2.40;;;;;;;20.69;61.29;99673.63;5020934;28;20034;-80
2021/05/10 06:53:30;;;;;;;3.88;2.20;;;;;;;20.77;62.60;99679.59;5016419;28;20533;-80
2021/05/10 06:55:56;;;;;;;6.53;2.88;;;;;;;20.77;61.88;99690.56;5022262;28;20025;-79
2021/05/10 06:58:42;;;;;;;2.15;1.92;;;;;;;20.77;62.02;99682.34;5015122;28;20018;-79
2021/05/10 07:01:08;;;;;;;3.65;2.25;;;;;;;20.90;62.02;99687.75;4974422;28;20051;-80
2021/05/10 07:03:33;;;;;;;4.22;2.47;;;;;;;20.93;61.22;99690.34;4974407;28;20061;-80
2021/05/10 07:05:59;;;;;;;4.57;2.50;;;;;;;20.92;62.36;99675.16;4976338;28;20165;-79
2021/05/10 07:08:24;;;;;;;3.28;2.50;;;;;;;20.97;61.62;99682.00;4970067;28;20031;-79
2021/05/10 07:10:52;;;;;;;8.55;2.67;;;;;;;20.96;62.13;99681.25;4974978;28;20054;-78
2021/05/10 07:13:18;;;;;;;3.65;2.50;;;;;;;21.01;62.09;99685.41;4956692;28;20059;-79
2021/05/10 07:15:44;;;;;;;3.90;2.38;;;;;;;20.98;61.26;99680.81;4974290;28;20037;-80
2021/05/10 07:18:11;;;;;;;3.20;2.20;;;;;;;21.04;62.44;99690.00;4967362;28;20043;-80
2021/05/10 07:20:38;;;;;;;7.68;2.63;;;;;;;20.96;63.66;99681.25;4973608;28;20541;-80
2021/05/10 07:23:06;;;;;;;3.55;2.67;;;;;;;20.96;68.76;99680.47;4972377;28;20502;-81
2021/05/10 07:25:40;;;;;;;2.78;2.25;;;;;;;21.00;65.92;99684.59;4981897;28;20030;-81
2021/05/10 07:28:06;;;;;;;3.70;2.30;;;;;;;21.12;66.56;99683.78;4972591;28;20443;-81
2021/05/10 07:30:31;;;;;;;3.03;2.38;;;;;;;21.28;67.11;99691.00;4965011;28;20097;-81
2021/05/10 07:32:57;;;;;;;3.00;2.20;;;;;;;21.51;67.84;99699.47;4975386;28;20023;-81
2021/05/10 07:35:22;;;;;;;3.65;2.30;;;;;;;21.65;65.03;99692.66;4959828;28;20182;-81
2021/05/10 07:37:48;;;;;;;10.73;2.38;;;;;;;21.75;63.75;99691.44;4998822;28;20045;-82
2021/05/10 07:40:17;;;;;;;3.30;2.30;;;;;;;21.95;62.52;99691.06;5026761;28;20044;-81
2021/05/10 07:42:43;;;;;;;2.63;2.08;;;;;;;22.19;59.19;99702.94;5027747;28;20037;-81
2021/05/10 07:45:09;;;;;;;7.13;2.42;;;;;;;22.02;59.97;99701.72;5030574;28;20132;-81
2021/05/10 07:47:34;;;;;;;3.75;2.30;;;;;;;22.15;63.57;99689.38;5026111;28;20033;-81
2021/05/10 07:50:00;;;;;;;3.42;2.22;;;;;;;22.22;65.33;99700.06;5032293;28;20029;-81
2021/05/10 07:52:25;;;;;;;4.35;2.08;;;;;;;22.36;64.79;99707.69;5033485;28;20150;-81
2021/05/10 07:54:51;;;;;;;3.92;2.05;;;;;;;22.63;65.46;99708.94;5039258;28;20033;-82
2021/05/10 07:57:16;;;;;;;5.68;2.20;;;;;;;22.74;65.69;99704.47;5033566;28;20613;-81
2021/05/10 07:59:50;;;;;;;2.72;2.30;;;;;;;22.86;66.00;99716.50;5022079;28;20336;-81
2021/05/10 08:02:15;;;;;;;7.72;2.15;;;;;;;22.80;61.04;99712.88;5029651;28;20041;-81
2021/05/10 08:04:49;;;;;;;6.75;2.28;;;;;;;23.23;60.77;99713.19;5053559;28;20056;-81
2021/05/10 08:07:15;;;;;;;3.50;2.10;;;;;;;23.46;57.68;99719.97;5033865;28;20091;-80
2021/05/10 08:09:47;;;;;;;7.20;2.63;;;;;;;23.81;55.75;99723.78;5028684;28;20025;-81
2021/05/10 08:12:18;;;;;;;3.08;2.15;;;;;;;23.63;54.16;99728.63;5035492;28;20977;-81
2021/05/10 08:14:43;;;;;;;4.30;2.10;;;;;;;23.97;53.75;99726.13;5026987;28;20496;-81
2021/05/10 08:17:11;;;;;;;6.38;2.00;;;;;;;24.10;52.87;99728.66;5031096;28;20033;-80
2021/05/10 08:19:40;;;;;;;6.28;2.20;;;;;;;24.45;52.44;99737.13;5034794;28;20036;-81
2021/05/10 08:22:21;;;;;;;7.07;2.17;;;;;;;24.33;54.36;99744.41;5031586;28;20056;-80
2021/05/10 08:24:53;;;;;;;3.05;2.10;;;;;;;24.72;51.54;99750.69;5026424;28;20037;-81
2021/05/10 08:27:19;;;;;;;6.78;2.30;;;;;;;24.89;50.49;99747.00;5032305;28;20034;-81
2021/05/10 08:29:44;;;;;;;2.75;2.17;;;;;;;25.41;51.03;99750.13;5025558;28;20485;-81
2021/05/10 08:32:10;;;;;;;3.38;2.00;;;;;;;25.12;49.68;99758.41;5036206;28;20045;-79
2021/05/10 08:34:35;;;;;;;5.43;1.80;;;;;;;25.14;49.99;99761.44;5028620;28;20029;-79
2021/05/10 08:37:03;;;;;;;4.35;1.85;;;;;;;25.10;50.47;99747.88;5023470;28;20728;-79
2021/05/10 08:39:31;;;;;;;6.65;2.42;;;;;;;25.46;50.71;99764.00;5020082;28;20093;-79
2021/05/10 08:41:57;;;;;;;4.30;2.63;;;;;;;25.81;51.20;99762.03;5023572;28;20041;-80
2021/05/10 08:44:23;;;;;;;7.47;2.15;;;;;;;25.94;50.37;99759.69;5038657;28;20417;-78
2021/05/10 08:46:49;;;;;;;3.65;2.45;;;;;;;25.86;49.46;99768.88;5023016;28;20040;-79
2021/05/10 08:49:19;;;;;;;5.53;1.98;;;;;;;25.68;50.06;99761.59;5019250;28;20440;-79
2021/05/10 08:51:45;;;;;;;2.45;1.85;;;;;;;26.29;50.55;99762.44;5001215;28;20456;-78
2021/05/10 08:54:27;;;;;;;3.10;1.95;;;;;;;26.37;49.22;99758.00;5009181;28;20041;-78
2021/05/10 08:56:54;;;;;;;3.10;2.10;;;;;;;26.41;49.02;99755.81;5017744;28;20041;-78
2021/05/10 08:59:21;;;;;;;3.47;1.92;;;;;;;27.02;47.75;99744.66;5020295;28;20064;-80
2021/05/10 09:01:53;;;;;;;9.30;1.90;;;;;;;26.62;47.64;99759.28;5010013;28;21291;-79
2021/05/10 09:04:28;;;;;;;3.15;1.80;;;;;;;26.71;48.65;99748.13;5015963;28;20057;-79
2021/05/10 09:07:19;;;;;;;3.88;1.92;;;;;;;26.90;48.74;99743.03;5018718;28;20087;-79
2021/05/10 09:10:00;;;;;;;5.78;2.00;;;;;;;27.48;46.30;99746.06;5002277;28;20045;-79
2021/05/10 09:12:47;;;;;;;2.83;1.67;;;;;;;26.79;48.17;99758.25;5016977;28;20052;-80
2021/05/10 09:15:15;;;;;;;2.25;1.70;;;;;;;27.25;47.46;99751.88;5022032;28;20041;-79
2021/05/10 09:17:52;;;;;;;4.30;1.60;;;;;;;27.46;46.39;99750.56;5026255;28;20041;-79
2021/05/10 09:20:28;;;;;;;3.13;1.83;;;;;;;26.93;48.61;99753.09;5020717;28;20030;-79
2021/05/10 09:22:56;;;;;;;3.28;1.80;;;;;;;27.10;49.76;99740.19;5017011;28;20034;-79
2021/05/10 09:25:54;;;;;;;4.88;1.98;;;;;;;26.75;49.55;99740.38;5018936;28;20041;-79
2021/05/10 09:28:24;;;;;;;5.53;2.03;;;;;;;26.77;50.04;99735.88;5014915;28;20044;-81
2021/05/10 09:31:02;;;;;;;6.90;2.13;;;;;;;27.66;49.54;99739.38;5003434;28;20088;-79
2021/05/10 09:33:28;;;;;;;3.08;1.70;;;;;;;27.31;47.46;99742.34;5020408;28;20108;-80
2021/05/10 09:36:07;;;;;;;2.55;2.00;;;;;;;27.99;47.45;99736.81;5020429;28;20026;-80
2021/05/10 09:38:36;;;;;;;2.85;1.50;;;;;;;27.54;44.89;99735.03;5022699;28;20041;-79
2021/05/10 09:41:07;;;;;;;1.77;1.50;;;;;;;28.02;46.00;99740.59;5007018;28;20084;-80
2021/05/10 09:43:34;;;;;;;;;;;;;;;28.22;44.47;99730.09;5022750;28;20068;-80
2021/05/10 09:46:08;;;;;;;3.75;1.40;;;;;;;28.17;43.79;99736.38;5023410;28;19921;-80
2021/05/10 09:48:37;;;;;;;4.65;1.73;;;;;;;27.96;44.98;99743.34;5015208;28;20045;-80
2021/05/10 09:51:09;;;;;;;2.47;1.50;;;;;;;28.19;43.86;99744.19;5017901;28;20018;-80
2021/05/10 09:53:36;;;;;;;3.85;1.40;;;;;;;27.75;45.79;99741.94;5017955;28;20081;-79
2021/05/10 09:56:03;;;;;;;2.72;1.25;;;;;;;27.96;44.22;99751.66;5018992;28;20088;-81
2021/05/10 09:58:46;;;;;;;4.55;1.27;;;;;;;28.15;43.66;99749.97;5011597;28;20021;-78
2021/05/10 10:01:12;;;;;;;2.75;1.55;;;;;;;27.75;43.10;99743.94;5006615;28;20042;-79
2021/05/10 10:03:46;;;;;;;4.05;1.25;;;;;;;27.51;43.58;99736.00;5011181;28;20018;-79
2021/05/10 10:06:14;;;;;;;3.90;1.70;;;;;;;27.52;45.19;99738.28;5012991;28;20785;-78
2021/05/10 10:08:42;;;;;;;5.68;1.60;;;;;;;28.23;44.09;99739.94;5004004;28;20049;-78
2021/05/10 10:11:13;;;;;;;4.72;1.85;;;;;;;28.46;44.11;99738.75;5008234;28;20470;-79
2021/05/10 10:13:39;;;;;;;4.55;1.80;;;;;;;29.26;44.97;99728.81;5003921;28;20049;-79
2021/05/10 10:16:09;;;;;;;3.13;1.50;;;;;;;29.39;41.78;99736.63;5026654;28;20022;-80
2021/05/10 10:18:37;;;;;;;4.40;1.35;;;;;;;29.30;40.92;99732.09;5006770;28;20034;-80
2021/05/10 10:21:03;;;;;;;4.75;1.58;;;;;;;29.13;41.50;99730.59;5006029;28;20129;-78
2021/05/10 10:23:29;;;;;;;2.80;1.30;;;;;;;29.70;41.91;99721.69;5011604;28;20061;-79
2021/05/10 10:25:57;;;;;;;3.63;1.20;;;;;;;29.89;39.04;99726.19;5012503;28;20088;-78
2021/05/10 10:28:25;;;;;;;6.78;1.27;;;;;;;29.81;38.26;99730.75;5021196;28;20465;-79
2021/05/10 10:30:59;;;;;;;7.25;1.40;;;;;;;29.66;38.13;99721.19;5017424;28;20071;-79
2021/05/10 10:33:30;;;;;;;3.75;1.30;;;;;;;29.95;38.36;99713.03;5011008;28;20034;-79
2021/05/10 10:35:56;;;;;;;1.70;1.17;;;;;;;29.68;37.51;99708.31;5015101;28;20033;-79
2021/05/10 10:38:26;;;;;;;1.70;1.20;;;;;;;29.04;38.54;99712.16;5020542;28;20069;-78
2021/05/10 10:41:15;;;;;;;10.77;1.13;;;;;;;29.79;39.68;99721.44;5021745;28;20037;-79
2021/05/10 10:43:41;;;;;;;7.07;1.48;;;;;;;29.51;39.11;99713.16;5016322;28;20129;-79
2021/05/10 10:46:20;;;;;;;3.50;1.42;;;;;;;29.92;38.12;99716.84;5013714;28;20112;-79
2021/05/10 10:48:46;;;;;;;5.57;1.48;;;;;;;30.10;38.90;99718.31;5023806;22;20053;-80
2021/05/10 10:51:14;;;;;;;6.03;1.50;;;;;;;30.63;37.51;99714.25;5014067;28;20129;-78
2021/05/10 10:53:41;;;;;;;2.67;1.48;;;;;;;31.19;36.79;99723.72;5016852;28;20033;-79
2021/05/10 10:56:07;;;;;;;4.32;1.40;;;;;;;30.33;37.65;99728.09;5014013;28;20041;-78
2021/05/10 10:58:33;;;;;;;5.15;2.40;;;;;;;30.70;36.86;99711.66;5010953;28;20036;-79
2021/05/10 11:01:11;;;;;;;6.63;2.38;;;;;;;30.68;39.01;99707.91;4988248;28;21609;-79
2021/05/10 11:03:37;;;;;;;4.60;2.55;;;;;;;30.31;37.82;99721.50;4988413;28;20053;-79
2021/05/10 11:06:04;;;;;;;3.38;2.25;;;;;;;30.16;37.70;99705.13;4988678;28;20038;-81
2021/05/10 11:08:39;;;;;;;2.90;1.90;;;;;;;30.66;36.87;99702.09;4991139;28;20031;-80
2021/05/10 11:11:24;;;;;;;2.72;1.55;;;;;;;29.96;37.50;99700.69;5002167;28;20038;-76
2021/05/10 11:13:51;;;;;;;9.35;1.80;;;;;;;30.50;37.33;99702.94;4998462;28;20041;-78
2021/05/10 11:16:18;;;;;;;7.55;1.25;;;;;;;31.13;36.37;99709.84;4999503;28;20036;-83
2021/05/10 11:18:47;;;;;;;4.13;1.20;;;;;;;30.81;35.73;99705.28;5003099;28;20542;-77
2021/05/10 11:21:22;;;;;;;2.58;1.42;;;;;;;30.50;35.88;99714.06;4997209;28;20053;-78
2021/05/10 11:24:04;;;;;;;2.17;1.25;;;;;;;30.09;37.43;99695.31;5004334;28;20037;-79
2021/05/10 11:26:39;;;;;;;6.57;1.30;;;;;;;30.03;37.73;99699.38;5003869;28;20073;-78
2021/05/10 11:29:24;;;;;;;6.45;1.60;;;;;;;29.74;37.39;99711.09;5000345;28;20042;-78
2021/05/10 11:31:51;;;;;;;2.80;1.20;;;;;;;29.45;37.92;99708.84;5000031;28;20439;-78
2021/05/10 11:34:24;;;;;;;3.42;1.30;;;;;;;29.88;37.17;99688.59;4998065;28;20113;-78
2021/05/10 11:36:54;;;;;;;2.88;1.33;;;;;;;29.88;36.39;99691.38;5005385;28;20030;-79
2021/05/10 11:39:30;;;;;;;1.63;1.27;;;;;;;29.69;36.70;99704.28;4995373;28;20286;-78
2021/05/10 11:42:07;;;;;;;2.95;1.30;;;;;;;29.76;36.57;99703.00;4997150;28;20069;-78
2021/05/10 11:44:35;;;;;;;2.47;1.40;;;;;;;30.11;37.08;99703.91;5001210;28;20038;-78